createdAt,value
2019-06-20T00:01:21.412Z,19.10
2019-06-20T00:03:56.366Z,18.70
2019-06-20T00:06:29.036Z,18.20
2019-06-20T00:09:01.478Z,18.00
2019-06-20T00:11:33.765Z,18.00
2019-06-20T00:14:05.732Z,18.00
2019-06-20T00:16:40.497Z,18.00
2019-06-20T00:19:12.981Z,18.00
2019-06-20T00:21:44.882Z,17.80
2019-06-20T00:24:16.735Z,18.00
2019-06-20T00:26:48.640Z,18.20
2019-06-20T00:29:20.754Z,18.30
2019-06-20T00:31:53.113Z,18.50
2019-06-20T00:34:25.215Z,18.40
2019-06-20T00:36:57.188Z,18.50
2019-06-20T00:39:29.403Z,18.60
2019-06-20T00:42:01.396Z,18.80
2019-06-20T00:44:33.630Z,18.80
2019-06-20T00:47:05.544Z,18.80
2019-06-20T00:49:37.629Z,18.90
2019-06-20T00:52:09.842Z,18.70
2019-06-20T00:54:41.678Z,18.70
2019-06-20T00:57:14.130Z,18.80
2019-06-20T00:59:45.963Z,18.80
2019-06-20T01:02:18.154Z,18.80
2019-06-20T01:04:50.579Z,18.80
2019-06-20T01:07:22.451Z,18.00
2019-06-20T01:09:54.926Z,18.00
2019-06-20T01:12:27.117Z,18.20
2019-06-20T01:14:59.858Z,18.20
2019-06-20T01:17:32.132Z,17.90
2019-06-20T01:20:04.583Z,17.90
2019-06-20T01:22:36.821Z,17.80
2019-06-20T01:25:09.334Z,17.90
2019-06-20T01:27:41.600Z,18.20
2019-06-20T01:30:14.041Z,18.40
2019-06-20T01:32:47.094Z,18.50
2019-06-20T01:35:19.027Z,18.50
2019-06-20T01:37:51.151Z,18.60
2019-06-20T01:40:23.013Z,18.60
2019-06-20T01:42:55.478Z,18.90
2019-06-20T01:45:27.417Z,18.70
2019-06-20T01:47:59.659Z,18.90
2019-06-20T01:50:31.867Z,18.90
2019-06-20T01:53:04.009Z,18.90
2019-06-20T01:55:36.605Z,18.80
2019-06-20T01:58:08.463Z,18.70
2019-06-20T02:00:47.586Z,18.70
2019-06-20T02:03:19.547Z,18.70
2019-06-20T02:05:51.400Z,18.80
2019-06-20T02:08:23.280Z,18.80
2019-06-20T02:10:55.123Z,19.00
2019-06-20T02:13:26.996Z,18.90
2019-06-20T02:15:59.093Z,19.10
2019-06-20T02:18:31.969Z,19.10
2019-06-20T02:21:03.939Z,19.00
2019-06-20T02:23:36.224Z,19.00
2019-06-20T02:26:08.321Z,18.70
2019-06-20T02:28:40.755Z,18.50
2019-06-20T02:31:12.586Z,18.60
2019-06-20T02:33:44.460Z,18.80
2019-06-20T02:36:16.624Z,18.90
2019-06-20T02:38:48.495Z,19.00
2019-06-20T02:41:20.326Z,18.70
2019-06-20T02:43:53.072Z,18.90
2019-06-20T02:46:25.244Z,18.90
2019-06-20T02:48:57.661Z,18.80
2019-06-20T02:51:29.881Z,19.00
2019-06-20T02:54:02.426Z,19.00
2019-06-20T02:56:34.271Z,18.90
2019-06-20T02:59:06.249Z,18.60
2019-06-20T03:01:38.084Z,18.60
2019-06-20T03:04:10.705Z,18.70
2019-06-20T03:06:42.979Z,18.60
2019-06-20T03:09:14.851Z,18.40
2019-06-20T03:11:46.692Z,18.50
2019-06-20T03:14:18.888Z,18.60
2019-06-20T03:16:51.344Z,18.50
2019-06-20T03:19:23.553Z,18.50
2019-06-20T03:21:55.962Z,18.50
2019-06-20T03:24:28.157Z,18.50
2019-06-20T03:27:00.334Z,18.50
2019-06-20T03:29:32.503Z,18.50
2019-06-20T03:32:04.352Z,18.80
2019-06-20T03:34:36.579Z,18.60
2019-06-20T03:37:08.435Z,18.80
2019-06-20T03:39:40.582Z,18.40
2019-06-20T03:42:12.693Z,18.60
2019-06-20T03:45:01.001Z,18.70
2019-06-20T03:47:19.139Z,18.60
2019-06-20T03:49:51.590Z,18.80
2019-06-20T03:52:23.414Z,18.70
2019-06-20T03:54:55.302Z,18.70
2019-06-20T03:57:27.122Z,18.70
2019-06-20T03:59:59.664Z,18.70
2019-06-20T04:02:32.046Z,18.90
2019-06-20T04:05:04.048Z,18.70
2019-06-20T04:07:35.883Z,18.70
2019-06-20T04:10:07.763Z,18.70
2019-06-20T04:12:40.191Z,18.80
2019-06-20T04:15:18.901Z,18.80
2019-06-20T04:17:46.071Z,18.90
2019-06-20T04:20:18.058Z,18.70
2019-06-20T04:22:50.179Z,18.70
2019-06-20T04:25:22.061Z,18.70
2019-06-20T04:27:53.919Z,18.80
2019-06-20T04:30:26.058Z,18.70
2019-06-20T04:32:58.254Z,19.00
2019-06-20T04:35:30.405Z,19.00
2019-06-20T04:38:02.994Z,19.00
2019-06-20T04:40:35.268Z,19.20
2019-06-20T04:43:07.120Z,19.20
2019-06-20T04:45:58.925Z,19.30
2019-06-20T04:48:31.084Z,19.10
2019-06-20T04:51:03.783Z,19.10
2019-06-20T04:53:35.683Z,18.90
2019-06-20T04:56:07.837Z,18.90
2019-06-20T04:58:40.013Z,18.80
2019-06-20T05:01:12.267Z,18.50
2019-06-20T05:03:44.137Z,18.50
2019-06-20T05:06:16.594Z,18.10
2019-06-20T05:08:48.716Z,18.00
2019-06-20T05:11:20.602Z,18.10
2019-06-20T05:13:52.506Z,18.20
2019-06-20T05:16:24.434Z,18.30
2019-06-20T05:18:56.274Z,18.60
2019-06-20T05:21:28.685Z,18.50
2019-06-20T05:24:00.592Z,18.60
2019-06-20T05:26:33.276Z,18.60
2019-06-20T05:29:05.646Z,18.60
2019-06-20T05:31:37.953Z,18.60
2019-06-20T05:34:10.539Z,18.70
2019-06-20T05:36:43.073Z,18.70
2019-06-20T05:39:15.648Z,18.80
2019-06-20T05:41:47.876Z,18.70
2019-06-20T05:44:19.707Z,18.70
2019-06-20T05:46:52.027Z,18.80
2019-06-20T05:49:24.272Z,18.90
2019-06-20T05:51:56.490Z,19.00
2019-06-20T05:54:28.602Z,18.90
2019-06-20T05:57:03.504Z,18.90
2019-06-20T05:59:34.368Z,19.00
2019-06-20T06:02:06.856Z,19.10
2019-06-20T06:04:38.997Z,19.10
2019-06-20T06:07:14.150Z,19.20
2019-06-20T06:09:45.694Z,19.30
2019-06-20T06:12:18.001Z,19.30
2019-06-20T06:14:50.261Z,19.50
2019-06-20T06:17:22.405Z,19.70
2019-06-20T06:19:54.524Z,19.60
2019-06-20T06:22:26.484Z,19.60
2019-06-20T06:24:58.647Z,19.30
2019-06-20T06:27:30.783Z,19.00
2019-06-20T06:30:02.946Z,19.10
2019-06-20T06:32:39.948Z,19.40
2019-06-20T06:35:10.414Z,19.40
2019-06-20T06:37:42.622Z,19.70
2019-06-20T06:40:16.309Z,19.80
2019-06-20T06:42:49.027Z,19.90
2019-06-20T06:45:22.950Z,20.10
2019-06-20T06:47:55.090Z,20.40
2019-06-20T06:50:26.916Z,20.40
2019-06-20T06:52:59.510Z,20.40
2019-06-20T06:55:31.357Z,20.60
2019-06-20T06:58:03.223Z,20.70
2019-06-20T07:00:35.732Z,20.80
2019-06-20T07:03:07.875Z,21.10
2019-06-20T07:05:40.006Z,21.30
2019-06-20T07:08:11.877Z,21.30
2019-06-20T07:10:44.538Z,21.70
2019-06-20T07:13:16.714Z,22.00
2019-06-20T07:15:48.879Z,22.10
2019-06-20T07:18:21.847Z,22.40
2019-06-20T07:20:53.711Z,22.30
2019-06-20T07:23:25.914Z,22.80
2019-06-20T07:25:57.858Z,23.10
2019-06-20T07:28:29.744Z,23.30
2019-06-20T07:31:02.166Z,23.30
2019-06-20T07:33:34.034Z,23.40
2019-06-20T07:36:06.378Z,23.70
2019-06-20T07:38:38.548Z,23.50
2019-06-20T07:41:10.711Z,23.60
2019-06-20T07:43:42.954Z,23.60
2019-06-20T07:46:14.800Z,23.50
2019-06-20T07:48:47.398Z,23.40
2019-06-20T07:51:19.246Z,23.60
2019-06-20T07:53:51.374Z,23.90
2019-06-20T07:56:23.607Z,23.60
2019-06-20T07:58:55.915Z,23.60
2019-06-20T08:01:28.075Z,23.50
2019-06-20T08:04:00.697Z,23.60
2019-06-20T08:06:33.185Z,23.20
2019-06-20T08:09:07.551Z,23.20
2019-06-20T08:11:39.909Z,23.10
2019-06-20T08:14:12.437Z,23.50
2019-06-20T08:16:44.291Z,23.70
2019-06-20T08:19:16.572Z,24.20
2019-06-20T08:21:48.997Z,24.40
2019-06-20T08:24:21.435Z,24.20
2019-06-20T08:26:53.534Z,24.60
2019-06-20T08:29:25.794Z,24.80
2019-06-20T08:31:59.400Z,24.70
2019-06-20T08:34:31.198Z,24.60
2019-06-20T08:37:04.377Z,24.70
2019-06-20T08:39:36.402Z,24.40
2019-06-20T08:42:08.528Z,24.70
2019-06-20T08:44:40.384Z,24.90
2019-06-20T08:47:12.501Z,25.50
2019-06-20T08:49:45.392Z,25.80
2019-06-20T08:52:17.208Z,25.70
2019-06-20T08:54:49.770Z,25.70
2019-06-20T08:57:23.346Z,25.70
2019-06-20T08:59:56.000Z,25.20
2019-06-20T09:02:29.011Z,24.80
2019-06-20T09:05:04.018Z,24.60
2019-06-20T09:07:34.770Z,24.80
2019-06-20T09:10:07.447Z,25.10
2019-06-20T09:12:39.545Z,25.40
2019-06-20T09:15:11.518Z,25.50
2019-06-20T09:17:43.920Z,25.30
2019-06-20T09:20:16.198Z,25.20
2019-06-20T09:22:48.524Z,25.30
2019-06-20T09:25:20.663Z,25.40
2019-06-20T09:27:54.365Z,25.10
2019-06-20T09:30:33.648Z,25.00
2019-06-20T09:33:06.696Z,24.80
2019-06-20T09:35:38.581Z,24.90
2019-06-20T09:38:10.570Z,24.90
2019-06-20T09:40:43.067Z,25.40
2019-06-20T09:43:27.236Z,25.30
2019-06-20T09:45:49.748Z,25.00
2019-06-20T09:48:23.216Z,24.70
2019-06-20T09:50:56.911Z,24.50
2019-06-20T09:53:29.325Z,24.50
2019-06-20T09:56:01.221Z,24.40
2019-06-20T09:58:35.730Z,24.70
2019-06-20T10:01:07.607Z,24.70
2019-06-20T10:03:39.737Z,24.60
2019-06-20T10:06:14.293Z,24.30
2019-06-20T10:08:47.103Z,23.80
2019-06-20T10:11:20.239Z,24.00
2019-06-20T10:13:52.352Z,24.10
2019-06-20T10:16:24.224Z,24.10
2019-06-20T10:18:56.653Z,24.20
2019-06-20T10:21:28.938Z,24.30
2019-06-20T10:24:01.379Z,24.30
2019-06-20T10:26:33.251Z,24.70
2019-06-20T10:29:05.221Z,24.90
2019-06-20T10:31:37.856Z,25.30
2019-06-20T10:34:10.041Z,25.30
2019-06-20T10:36:41.932Z,24.80
2019-06-20T10:39:13.765Z,25.30
2019-06-20T10:41:46.814Z,25.20
2019-06-20T10:44:19.835Z,25.50
2019-06-20T10:46:52.681Z,26.10
2019-06-20T10:49:24.898Z,26.00
2019-06-20T10:51:57.662Z,26.20
2019-06-20T10:54:29.777Z,26.50
2019-06-20T10:57:02.006Z,26.90
2019-06-20T10:59:33.927Z,27.10
2019-06-20T11:02:07.281Z,27.40
2019-06-20T11:04:40.699Z,27.60
2019-06-20T11:07:13.488Z,28.20
2019-06-20T11:09:47.115Z,28.60
2019-06-20T11:12:19.085Z,29.20
2019-06-20T11:14:51.853Z,29.70
2019-06-20T11:17:24.327Z,30.30
2019-06-20T11:19:56.522Z,30.50
2019-06-20T11:22:28.964Z,30.60
2019-06-20T11:25:01.242Z,30.60
2019-06-20T11:27:33.725Z,30.60
2019-06-20T11:30:08.331Z,30.30
2019-06-20T11:32:41.002Z,30.40
2019-06-20T11:35:12.947Z,30.60
2019-06-20T11:37:44.987Z,30.60
2019-06-20T11:40:17.961Z,30.70
2019-06-20T11:42:50.106Z,31.10
2019-06-20T11:45:22.444Z,31.40
2019-06-20T11:47:54.922Z,31.30
2019-06-20T11:50:27.218Z,31.10
2019-06-20T11:52:59.492Z,31.50
2019-06-20T11:55:32.034Z,32.20
2019-06-20T11:58:03.927Z,31.00
2019-06-20T12:00:36.169Z,31.10
2019-06-20T12:03:08.497Z,30.40
2019-06-20T12:05:41.872Z,31.70
2019-06-20T12:08:14.260Z,32.00
2019-06-20T12:10:47.402Z,31.80
2019-06-20T12:13:19.876Z,32.50
2019-06-20T12:15:51.723Z,32.70
2019-06-20T12:18:23.588Z,31.70
2019-06-20T12:20:55.708Z,31.50
2019-06-20T12:23:27.690Z,31.60
2019-06-20T12:25:59.862Z,30.90
2019-06-20T12:28:31.740Z,30.50
2019-06-20T12:31:18.490Z,30.00
2019-06-20T12:33:39.226Z,29.90
2019-06-20T12:36:13.138Z,30.30
2019-06-20T12:38:46.286Z,31.00
2019-06-20T12:41:18.739Z,31.10
2019-06-20T12:43:50.952Z,31.60
2019-06-20T12:46:23.058Z,32.20
2019-06-20T12:48:55.626Z,31.60
2019-06-20T12:51:27.815Z,31.40
2019-06-20T12:54:00.378Z,32.80
2019-06-20T12:56:32.228Z,33.10
2019-06-20T12:59:04.250Z,32.10
2019-06-20T13:01:40.643Z,31.70
2019-06-20T13:04:10.321Z,31.90
2019-06-20T13:06:44.357Z,33.70
2019-06-20T13:09:16.289Z,34.50
2019-06-20T13:11:49.282Z,35.10
2019-06-20T13:14:21.525Z,36.00
2019-06-20T13:16:54.016Z,36.10
2019-06-20T13:19:26.164Z,35.60
2019-06-20T13:21:58.268Z,35.00
2019-06-20T13:24:30.747Z,33.40
2019-06-20T13:27:02.862Z,32.50
2019-06-20T13:29:35.005Z,31.70
2019-06-20T13:32:07.196Z,30.90
2019-06-20T13:34:41.615Z,31.00
2019-06-20T13:37:15.616Z,31.30
2019-06-20T13:39:47.551Z,30.90
2019-06-20T13:42:19.711Z,30.00
2019-06-20T13:44:51.563Z,30.00
2019-06-20T13:47:23.389Z,29.60
2019-06-20T13:49:55.325Z,29.50
2019-06-20T13:52:27.171Z,29.00
2019-06-20T13:54:59.382Z,28.90
2019-06-20T13:57:31.920Z,28.50
2019-06-20T14:00:04.886Z,28.30
2019-06-20T14:02:36.724Z,27.90
2019-06-20T14:05:08.720Z,27.70
2019-06-20T14:07:44.190Z,27.10
2019-06-20T14:10:17.647Z,26.90
2019-06-20T14:12:49.572Z,26.20
2019-06-20T14:15:22.060Z,25.70
2019-06-20T14:17:56.090Z,25.50
2019-06-20T14:20:28.055Z,25.20
2019-06-20T14:23:01.052Z,25.20
2019-06-20T14:25:34.290Z,25.10
2019-06-20T14:28:06.575Z,25.20
2019-06-20T14:30:38.441Z,25.00
2019-06-20T14:33:10.564Z,24.70
2019-06-20T14:35:44.018Z,24.30
2019-06-20T14:38:16.545Z,24.00
2019-06-20T14:40:49.968Z,23.70
2019-06-20T14:43:22.472Z,23.90
2019-06-20T14:45:54.436Z,25.20
2019-06-20T14:48:26.843Z,26.20
2019-06-20T14:50:58.734Z,27.00
2019-06-20T14:53:31.186Z,27.00
2019-06-20T14:56:03.398Z,27.60
2019-06-20T14:58:35.525Z,27.20
2019-06-20T15:01:07.418Z,27.20
2019-06-20T15:03:41.507Z,26.90
2019-06-20T15:06:13.710Z,26.30
2019-06-20T15:08:47.167Z,26.50
2019-06-20T15:11:19.788Z,25.90
2019-06-20T15:13:51.634Z,25.80
2019-06-20T15:16:26.500Z,25.30
2019-06-20T15:18:58.687Z,25.20
2019-06-20T15:21:31.298Z,24.90
2019-06-20T15:24:03.142Z,24.20
2019-06-20T15:26:35.985Z,24.00
2019-06-20T15:29:10.562Z,23.60
2019-06-20T15:31:47.218Z,23.30
2019-06-20T15:34:19.760Z,23.10
2019-06-20T15:36:53.383Z,23.20
2019-06-20T15:39:25.839Z,23.30
2019-06-20T15:41:58.272Z,23.50
2019-06-20T15:44:30.876Z,24.00
2019-06-20T15:47:03.072Z,25.20
2019-06-20T15:49:35.185Z,26.40
2019-06-20T15:52:07.391Z,27.20
2019-06-20T15:54:39.507Z,27.60
2019-06-20T15:57:12.365Z,28.20
2019-06-20T15:59:44.885Z,27.70
2019-06-20T16:02:17.364Z,27.60
2019-06-20T16:04:49.628Z,27.80
2019-06-20T16:07:22.264Z,27.90
2019-06-20T16:09:55.813Z,28.30
2019-06-20T16:12:28.469Z,28.70
2019-06-20T16:15:01.305Z,29.10
2019-06-20T16:17:34.066Z,30.20
2019-06-20T16:20:06.763Z,30.90
2019-06-20T16:22:38.696Z,31.40
2019-06-20T16:25:10.566Z,30.80
2019-06-20T16:27:42.917Z,29.70
2019-06-20T16:30:15.240Z,28.70
2019-06-20T16:32:47.895Z,27.60
2019-06-20T16:35:19.757Z,27.10
2019-06-20T16:37:51.775Z,26.80
2019-06-20T16:40:48.740Z,26.40
2019-06-20T16:43:21.229Z,25.60
2019-06-20T16:45:53.075Z,25.50
2019-06-20T16:48:25.639Z,25.50
2019-06-20T16:50:58.324Z,25.30
2019-06-20T16:53:30.951Z,25.70
2019-06-20T16:56:02.918Z,25.10
2019-06-20T16:58:35.804Z,24.80
2019-06-20T17:01:08.457Z,24.90
2019-06-20T17:03:42.258Z,25.10
2019-06-20T17:06:14.288Z,25.10
2019-06-20T17:08:46.643Z,25.00
2019-06-20T17:11:18.713Z,25.20
2019-06-20T17:13:50.923Z,25.10
2019-06-20T17:16:23.129Z,25.00
2019-06-20T17:18:55.025Z,25.20
2019-06-20T17:21:26.903Z,24.90
2019-06-20T17:23:58.781Z,25.00
2019-06-20T17:26:31.215Z,24.80
2019-06-20T17:29:03.202Z,24.40
2019-06-20T17:31:35.891Z,24.20
2019-06-20T17:34:08.155Z,23.80
2019-06-20T17:36:40.300Z,23.60
2019-06-20T17:39:12.901Z,23.70
2019-06-20T17:41:54.778Z,23.50
2019-06-20T17:44:18.937Z,23.10
2019-06-20T17:46:51.140Z,23.10
2019-06-20T17:49:23.070Z,23.10
2019-06-20T17:51:54.995Z,23.20
2019-06-20T17:54:26.905Z,23.30
2019-06-20T17:56:59.922Z,23.30
2019-06-20T17:59:33.160Z,23.10
2019-06-20T18:02:05.041Z,22.90
2019-06-20T18:04:37.513Z,22.80
2019-06-20T18:07:09.455Z,22.70
2019-06-20T18:09:41.947Z,22.70
2019-06-20T18:12:14.372Z,22.60
2019-06-20T18:14:46.266Z,22.50
2019-06-20T18:17:20.739Z,22.30
2019-06-20T18:19:52.587Z,22.20
2019-06-20T18:22:24.468Z,21.90
2019-06-20T18:24:56.715Z,21.90
2019-06-20T18:27:29.178Z,21.70
2019-06-20T18:30:01.807Z,21.70
2019-06-20T18:32:33.951Z,21.50
2019-06-20T18:35:07.159Z,21.50
2019-06-20T18:37:39.111Z,21.50
2019-06-20T18:40:11.463Z,21.40
2019-06-20T18:42:43.315Z,21.40
2019-06-20T18:45:15.198Z,21.50
2019-06-20T18:47:47.030Z,21.60
2019-06-20T18:50:19.802Z,21.60
2019-06-20T18:52:52.816Z,21.50
2019-06-20T18:55:25.295Z,21.50
2019-06-20T18:57:57.148Z,21.40
2019-06-20T19:00:34.496Z,21.30
2019-06-20T19:03:02.921Z,21.10
2019-06-20T19:05:35.408Z,21.00
2019-06-20T19:08:07.257Z,20.90
2019-06-20T19:10:47.024Z,20.70
2019-06-20T19:13:18.818Z,20.90
2019-06-20T19:15:50.797Z,20.40
2019-06-20T19:18:23.401Z,19.50
2019-06-20T19:20:56.791Z,18.80
2019-06-20T19:23:28.680Z,18.50
2019-06-20T19:26:00.847Z,18.00
2019-06-20T19:28:32.719Z,18.00
2019-06-20T19:31:04.895Z,17.90
2019-06-20T19:33:36.768Z,17.80
2019-06-20T19:36:08.925Z,17.30
2019-06-20T19:38:40.805Z,16.90
2019-06-20T19:41:12.722Z,17.10
2019-06-20T19:43:44.560Z,17.30
2019-06-20T19:46:17.144Z,17.50
2019-06-20T19:48:50.034Z,17.60
2019-06-20T19:51:22.219Z,17.60
2019-06-20T19:53:54.025Z,17.90
2019-06-20T19:56:26.303Z,17.80
2019-06-20T19:58:58.163Z,17.70
2019-06-20T20:01:30.496Z,17.70
2019-06-20T20:04:02.334Z,17.60
2019-06-20T20:06:34.474Z,17.60
2019-06-20T20:09:07.599Z,17.80
2019-06-20T20:11:39.565Z,17.90
2019-06-20T20:14:11.415Z,18.00
2019-06-20T20:16:43.279Z,17.70
2019-06-20T20:19:15.521Z,17.70
2019-06-20T20:21:48.046Z,17.80
2019-06-20T20:24:19.975Z,17.70
2019-06-20T20:26:51.863Z,17.80
2019-06-20T20:29:23.732Z,17.80
2019-06-20T20:31:56.035Z,17.70
2019-06-20T20:34:28.509Z,17.60
2019-06-20T20:37:00.803Z,17.80
2019-06-20T20:39:32.712Z,17.70
2019-06-20T20:42:05.641Z,17.80
2019-06-20T20:44:38.523Z,17.70
2019-06-20T20:47:11.030Z,17.90
2019-06-20T20:49:43.507Z,17.90
2019-06-20T20:52:15.385Z,17.80
2019-06-20T20:54:47.402Z,17.80
2019-06-20T20:57:20.129Z,17.70
2019-06-20T20:59:52.442Z,17.80
2019-06-20T21:02:25.314Z,17.60
2019-06-20T21:04:57.542Z,17.60
2019-06-20T21:07:29.809Z,17.60
2019-06-20T21:10:01.975Z,17.60
2019-06-20T21:12:33.864Z,17.60
2019-06-20T21:15:05.880Z,17.70
2019-06-20T21:17:37.751Z,17.50
2019-06-20T21:20:10.237Z,17.60
2019-06-20T21:22:42.181Z,17.20
2019-06-20T21:25:14.831Z,17.50
2019-06-20T21:27:46.721Z,17.50
2019-06-20T21:30:19.464Z,17.40
2019-06-20T21:32:51.684Z,17.30
2019-06-20T21:35:24.025Z,17.60
2019-06-20T21:37:56.259Z,17.30
2019-06-20T21:40:28.780Z,17.40
2019-06-20T21:43:00.644Z,17.30
2019-06-20T21:45:32.528Z,17.30
2019-06-20T21:48:05.091Z,17.30
2019-06-20T21:50:36.919Z,17.30
2019-06-20T21:53:08.797Z,17.20
2019-06-20T21:55:40.969Z,17.00
2019-06-20T21:58:13.392Z,17.00
2019-06-20T22:00:47.649Z,17.20
2019-06-20T22:03:20.084Z,17.10
2019-06-20T22:05:52.179Z,17.20
2019-06-20T22:08:24.318Z,17.30
2019-06-20T22:10:56.458Z,17.30
2019-06-20T22:13:28.855Z,17.60
2019-06-20T22:16:00.971Z,17.50
2019-06-20T22:18:33.711Z,17.60
2019-06-20T22:21:05.596Z,17.60
2019-06-20T22:23:37.460Z,17.30
2019-06-20T22:26:09.287Z,17.30
2019-06-20T22:28:41.436Z,17.40
2019-06-20T22:31:13.629Z,17.40
2019-06-20T22:33:45.954Z,17.50
2019-06-20T22:36:18.229Z,17.70
2019-06-20T22:38:50.735Z,17.50
2019-06-20T22:41:22.841Z,17.60
2019-06-20T22:43:55.154Z,17.80
2019-06-20T22:46:27.355Z,17.50
2019-06-20T22:48:59.220Z,17.50
2019-06-20T22:51:31.327Z,17.70
2019-06-20T22:54:03.348Z,17.50
2019-06-20T22:56:35.988Z,17.70
2019-06-20T22:59:07.928Z,17.80
2019-06-20T23:01:39.762Z,17.70
2019-06-20T23:04:11.876Z,17.60
2019-06-20T23:06:55.986Z,17.50
2019-06-20T23:09:17.704Z,17.60
2019-06-20T23:11:49.532Z,17.70
2019-06-20T23:14:21.389Z,17.70
2019-06-20T23:16:53.316Z,17.70
2019-06-20T23:19:25.797Z,17.50
2019-06-20T23:21:57.666Z,17.40
2019-06-20T23:24:29.834Z,17.60
2019-06-20T23:27:01.667Z,17.40
2019-06-20T23:29:33.888Z,17.40
2019-06-20T23:32:05.858Z,17.50
2019-06-20T23:34:37.963Z,17.50
2019-06-20T23:37:13.045Z,17.50
2019-06-20T23:39:43.380Z,17.50
2019-06-20T23:42:15.289Z,17.50
2019-06-20T23:44:56.486Z,17.40
2019-06-20T23:47:28.989Z,17.50
2019-06-20T23:50:01.258Z,17.40
2019-06-20T23:52:37.788Z,17.50
2019-06-20T23:55:09.639Z,17.40
2019-06-20T23:57:41.803Z,17.50
